Time,TemperatureF,DewpointF,PressureIn,WindDirection,WindDirectionDegrees,WindSpeedMPH,WindSpeedGustMPH,Humidity,HourlyPrecipIn,Conditions,Clouds,dailyrainin,SoftwareType,DateUTC
2013-04-28 00:02:00,55.0,-99.9,30.03,SSW,210,3.0,10.0,-999,-99.99,,,-99.99,,2013-04-28 05:02:00,
2013-04-28 00:12:00,55.0,-99.9,30.03,SSW,210,3.0,10.0,-999,-99.99,,,-99.99,,2013-04-28 05:12:00,
2013-04-28 00:22:00,55.0,-99.9,30.03,SSW,210,3.0,10.0,-999,-99.99,,,-99.99,,2013-04-28 05:22:00,
2013-04-28 00:33:00,55.0,-99.9,30.03,SSW,210,3.0,10.0,-999,-99.99,,,-99.99,,2013-04-28 05:33:00,
2013-04-28 01:02:00,52.0,-99.9,30.01,South,190,3.0,7.0,-999,-99.99,,,-99.99,,2013-04-28 06:02:00,
2013-04-28 01:13:00,-999.0,-99.9,30.01,SE,140,10.0,25.0,-999,-99.99,,,-99.99,,2013-04-28 06:13:00,
2013-04-28 01:22:00,-999.0,-99.9,30.01,SE,140,10.0,25.0,-999,-99.99,,,-99.99,,2013-04-28 06:22:00,
2013-04-28 01:32:00,-999.0,-99.9,30.01,SE,140,10.0,25.0,-999,-99.99,,,-99.99,,2013-04-28 06:32:00,
2013-04-28 01:40:00,44.0,-99.9,30.01,South,180,9.0,13.0,-999,-99.99,,,-99.99,,2013-04-28 06:40:00,
2013-04-28 01:42:00,-999.0,-99.9,30.01,SE,140,10.0,25.0,-999,-99.99,,,-99.99,,2013-04-28 06:42:00,
2013-04-28 01:52:00,-999.0,-99.9,30.01,SE,140,10.0,25.0,-999,-99.99,,,-99.99,,2013-04-28 06:52:00,
2013-04-28 02:02:00,44.0,-99.9,30.01,South,180,9.0,13.0,-999,-99.99,,,-99.99,,2013-04-28 07:02:00,
2013-04-28 02:11:00,44.0,-99.9,30.01,South,180,9.0,13.0,-999,-99.99,,,-99.99,,2013-04-28 07:11:00,
2013-04-28 02:22:00,44.0,-99.9,30.01,South,180,9.0,13.0,-999,-99.99,,,-99.99,,2013-04-28 07:22:00,
2013-04-28 02:32:00,44.0,-99.9,30.01,South,180,9.0,13.0,-999,-99.99,,,-99.99,,2013-04-28 07:32:00,
2013-04-28 02:40:00,45.0,-99.9,30.00,SSE,160,7.0,11.0,-999,-99.99,,,-99.99,,2013-04-28 07:40:00,
2013-04-28 03:02:00,45.0,-99.9,30.00,SSE,160,7.0,11.0,-999,-99.99,,,-99.99,,2013-04-28 08:02:00,
2013-04-28 03:12:00,45.0,-99.9,30.00,SSE,160,7.0,11.0,-999,-99.99,,,-99.99,,2013-04-28 08:12:00,
2013-04-28 03:22:00,45.0,-99.9,30.00,SSE,160,7.0,11.0,-999,-99.99,,,-99.99,,2013-04-28 08:22:00,
2013-04-28 03:32:00,45.0,-99.9,30.00,SSE,160,7.0,11.0,-999,-99.99,,,-99.99,,2013-04-28 08:32:00,
2013-04-28 03:40:00,46.0,-99.9,29.99,SSE,160,6.0,10.0,-999,-99.99,,,-99.99,,2013-04-28 08:40:00,
2013-04-28 04:01:00,46.0,-99.9,29.99,SSE,160,6.0,10.0,-999,-99.99,,,-99.99,,2013-04-28 09:01:00,
2013-04-28 04:12:00,46.0,-99.9,29.99,SSE,160,6.0,10.0,-999,-99.99,,,-99.99,,2013-04-28 09:12:00,
2013-04-28 04:22:00,46.0,-99.9,29.99,SSE,160,6.0,10.0,-999,-99.99,,,-99.99,,2013-04-28 09:22:00,
2013-04-28 04:33:00,46.0,-99.9,29.99,SSE,160,6.0,10.0,-999,-99.99,,,-99.99,,2013-04-28 09:33:00,
2013-04-28 04:40:00,47.0,-99.9,29.97,South,170,3.0,9.0,-999,-99.99,,,-99.99,,2013-04-28 09:40:00,
2013-04-28 05:03:00,47.0,-99.9,29.97,South,170,3.0,9.0,-999,-99.99,,,-99.99,,2013-04-28 10:03:00,
2013-04-28 05:12:00,47.0,-99.9,29.97,South,170,3.0,9.0,-999,-99.99,,,-99.99,,2013-04-28 10:12:00,
2013-04-28 05:23:00,47.0,-99.9,29.97,South,170,3.0,9.0,-999,-99.99,,,-99.99,,2013-04-28 10:23:00,
2013-04-28 05:32:00,47.0,-99.9,29.97,South,170,3.0,9.0,-999,-99.99,,,-99.99,,2013-04-28 10:32:00,
2013-04-28 05:40:00,47.0,-99.9,29.97,South,170,6.0,9.0,-999,-99.99,,,-99.99,,2013-04-28 10:40:00,
2013-04-28 06:02:00,47.0,-99.9,29.97,South,170,6.0,9.0,-999,-99.99,,,-99.99,,2013-04-28 11:02:00,
2013-04-28 06:11:00,47.0,-99.9,29.97,South,170,6.0,9.0,-999,-99.99,,,-99.99,,2013-04-28 11:11:00,
2013-04-28 06:22:00,47.0,-99.9,29.97,South,170,6.0,9.0,-999,-99.99,,,-99.99,,2013-04-28 11:22:00,
2013-04-28 06:32:00,47.0,-99.9,29.97,South,170,6.0,9.0,-999,-99.99,,,-99.99,,2013-04-28 11:32:00,
2013-04-28 06:40:00,48.0,-99.9,29.97,South,180,5.0,10.0,-999,-99.99,,,-99.99,,2013-04-28 11:40:00,
2013-04-28 07:02:00,48.0,-99.9,29.97,South,180,5.0,10.0,-999,-99.99,,,-99.99,,2013-04-28 12:02:00,
2013-04-28 07:12:00,48.0,-99.9,29.97,South,180,5.0,10.0,-999,-99.99,,,-99.99,,2013-04-28 12:12:00,
2013-04-28 07:22:00,48.0,-99.9,29.97,South,180,5.0,10.0,-999,-99.99,,,-99.99,,2013-04-28 12:22:00,
2013-04-28 07:32:00,48.0,-99.9,29.97,South,180,5.0,10.0,-999,-99.99,,,-99.99,,2013-04-28 12:32:00,
2013-04-28 07:40:00,52.0,-99.9,29.97,South,180,6.0,9.0,-999,-99.99,,,-99.99,,2013-04-28 12:40:00,
2013-04-28 08:02:00,52.0,-99.9,29.97,South,180,6.0,9.0,-999,-99.99,,,-99.99,,2013-04-28 13:02:00,
2013-04-28 08:11:00,52.0,-99.9,29.97,South,180,6.0,9.0,-999,-99.99,,,-99.99,,2013-04-28 13:11:00,
2013-04-28 08:22:00,52.0,-99.9,29.97,South,180,6.0,9.0,-999,-99.99,,,-99.99,,2013-04-28 13:22:00,
2013-04-28 08:32:00,52.0,-99.9,29.97,South,180,6.0,9.0,-999,-99.99,,,-99.99,,2013-04-28 13:32:00,
2013-04-28 09:02:00,54.0,-99.9,29.97,SSE,160,3.0,8.0,-999,-99.99,,,-99.99,,2013-04-28 14:02:00,
2013-04-28 09:11:00,54.0,-99.9,29.97,SSE,160,3.0,8.0,-999,-99.99,,,-99.99,,2013-04-28 14:11:00,
2013-04-28 09:22:00,54.0,-99.9,29.97,SSE,160,3.0,8.0,-999,-99.99,,,-99.99,,2013-04-28 14:22:00,
2013-04-28 09:32:00,-999.0,-99.9,29.97,NNW,330,7.0,16.0,-999,-99.99,,,-99.99,,2013-04-28 14:32:00,
2013-04-28 09:40:00,42.0,-99.9,29.96,NNW,330,7.0,9.0,-999,-99.99,,,-99.99,,2013-04-28 14:40:00,
2013-04-28 09:42:00,-999.0,-99.9,29.97,NNW,330,7.0,16.0,-999,-99.99,,,-99.99,,2013-04-28 14:42:00,
2013-04-28 09:52:00,-999.0,-99.9,29.97,NNW,330,7.0,16.0,-999,-99.99,,,-99.99,,2013-04-28 14:52:00,
2013-04-28 10:02:00,42.0,-99.9,29.96,NNW,330,7.0,9.0,-999,-99.99,,,-99.99,,2013-04-28 15:02:00,
2013-04-28 10:12:00,42.0,-99.9,29.96,NNW,330,7.0,9.0,-999,-99.99,,,-99.99,,2013-04-28 15:12:00,
2013-04-28 10:22:00,42.0,-99.9,29.96,NNW,330,7.0,9.0,-999,-99.99,,,-99.99,,2013-04-28 15:22:00,
2013-04-28 10:33:00,42.0,-99.9,29.96,NNW,330,7.0,9.0,-999,-99.99,,,-99.99,,2013-04-28 15:33:00,
2013-04-28 10:40:00,44.0,-99.9,29.95,NNW,340,2.0,3.0,-999,-99.99,,,-99.99,,2013-04-28 15:40:00,
2013-04-28 11:03:00,44.0,-99.9,29.95,NNW,340,2.0,3.0,-999,-99.99,,,-99.99,,2013-04-28 16:03:00,
2013-04-28 11:13:00,44.0,-99.9,29.95,NNW,340,2.0,3.0,-999,-99.99,,,-99.99,,2013-04-28 16:13:00,
2013-04-28 11:23:00,44.0,-99.9,29.95,NNW,340,2.0,3.0,-999,-99.99,,,-99.99,,2013-04-28 16:23:00,
2013-04-28 11:33:00,44.0,-99.9,29.95,NNW,340,2.0,3.0,-999,-99.99,,,-99.99,,2013-04-28 16:33:00,
2013-04-28 11:40:00,42.0,-99.9,29.93,NNW,330,5.0,7.0,-999,-99.99,,,-99.99,,2013-04-28 16:40:00,
2013-04-28 12:02:00,42.0,-99.9,29.93,NNW,330,5.0,7.0,-999,-99.99,,,-99.99,,2013-04-28 17:02:00,
2013-04-28 12:12:00,42.0,-99.9,29.93,NNW,330,5.0,7.0,-999,-99.99,,,-99.99,,2013-04-28 17:12:00,
2013-04-28 12:22:00,42.0,-99.9,29.93,NNW,330,5.0,7.0,-999,-99.99,,,-99.99,,2013-04-28 17:22:00,
2013-04-28 12:32:00,42.0,-99.9,29.93,NNW,330,5.0,7.0,-999,-99.99,,,-99.99,,2013-04-28 17:32:00,
2013-04-28 12:40:00,46.0,-99.9,29.91,North,350,2.0,3.0,-999,-99.99,,,-99.99,,2013-04-28 17:40:00,
2013-04-28 13:02:00,46.0,-99.9,29.91,North,350,2.0,3.0,-999,-99.99,,,-99.99,,2013-04-28 18:02:00,
2013-04-28 13:12:00,46.0,-99.9,29.91,North,350,2.0,3.0,-999,-99.99,,,-99.99,,2013-04-28 18:12:00,
2013-04-28 13:22:00,46.0,-99.9,29.91,North,350,2.0,3.0,-999,-99.99,,,-99.99,,2013-04-28 18:22:00,
2013-04-28 13:32:00,46.0,-99.9,29.91,North,350,2.0,3.0,-999,-99.99,,,-99.99,,2013-04-28 18:32:00,
2013-04-28 13:40:00,43.0,-99.9,29.88,SE,130,6.0,9.0,-999,-99.99,,,-99.99,,2013-04-28 18:40:00,
2013-04-28 14:02:00,43.0,-99.9,29.88,SE,130,6.0,9.0,-999,-99.99,,,-99.99,,2013-04-28 19:02:00,
2013-04-28 14:11:00,43.0,-99.9,29.88,SE,130,6.0,9.0,-999,-99.99,,,-99.99,,2013-04-28 19:11:00,
2013-04-28 14:22:00,43.0,-99.9,29.88,SE,130,6.0,9.0,-999,-99.99,,,-99.99,,2013-04-28 19:22:00,
2013-04-28 14:32:00,43.0,-99.9,29.88,SE,130,6.0,9.0,-999,-99.99,,,-99.99,,2013-04-28 19:32:00,
2013-04-28 14:40:00,44.0,-99.9,29.87,SE,140,6.0,7.0,-999,-99.99,,,-99.99,,2013-04-28 19:40:00,
2013-04-28 15:02:00,44.0,-99.9,29.87,SE,140,6.0,7.0,-999,-99.99,,,-99.99,,2013-04-28 20:02:00,
2013-04-28 15:12:00,44.0,-99.9,29.87,SE,140,6.0,7.0,-999,-99.99,,,-99.99,,2013-04-28 20:12:00,
2013-04-28 15:22:00,44.0,-99.9,29.87,SE,140,6.0,7.0,-999,-99.99,,,-99.99,,2013-04-28 20:22:00,
2013-04-28 15:33:00,44.0,-99.9,29.87,SE,140,6.0,7.0,-999,-99.99,,,-99.99,,2013-04-28 20:33:00,
2013-04-28 15:40:00,46.0,-99.9,29.85,SE,140,8.0,9.0,-999,-99.99,,,-99.99,,2013-04-28 20:40:00,
2013-04-28 16:01:00,46.0,-99.9,29.85,SE,140,8.0,9.0,-999,-99.99,,,-99.99,,2013-04-28 21:01:00,
2013-04-28 16:12:00,46.0,-99.9,29.85,SE,140,8.0,9.0,-999,-99.99,,,-99.99,,2013-04-28 21:12:00,
2013-04-28 16:22:00,46.0,-99.9,29.85,SE,140,8.0,9.0,-999,-99.99,,,-99.99,,2013-04-28 21:22:00,
2013-04-28 16:33:00,46.0,-99.9,29.85,SE,140,8.0,9.0,-999,-99.99,,,-99.99,,2013-04-28 21:33:00,
2013-04-28 16:40:00,46.0,-99.9,29.84,SE,140,9.0,11.0,-999,-99.99,,,-99.99,,2013-04-28 21:40:00,
2013-04-28 17:03:00,46.0,-99.9,29.84,SE,140,9.0,11.0,-999,-99.99,,,-99.99,,2013-04-28 22:03:00,
2013-04-28 17:13:00,46.0,-99.9,29.84,SE,140,9.0,11.0,-999,-99.99,,,-99.99,,2013-04-28 22:13:00,
2013-04-28 17:23:00,46.0,-99.9,29.84,SE,140,9.0,11.0,-999,-99.99,,,-99.99,,2013-04-28 22:23:00,
2013-04-28 17:34:00,46.0,-99.9,29.84,SE,140,9.0,11.0,-999,-99.99,,,-99.99,,2013-04-28 22:34:00,
2013-04-28 17:40:00,48.0,-99.9,29.84,SE,130,9.0,10.0,-999,-99.99,,,-99.99,,2013-04-28 22:40:00,
2013-04-28 18:02:00,48.0,-99.9,29.84,SE,130,9.0,10.0,-999,-99.99,,,-99.99,,2013-04-28 23:02:00,
2013-04-28 18:12:00,48.0,-99.9,29.84,SE,130,9.0,10.0,-999,-99.99,,,-99.99,,2013-04-28 23:12:00,
2013-04-28 18:22:00,48.0,-99.9,29.84,SE,130,9.0,10.0,-999,-99.99,,,-99.99,,2013-04-28 23:22:00,
2013-04-28 18:32:00,48.0,-99.9,29.84,SE,130,9.0,10.0,-999,-99.99,,,-99.99,,2013-04-28 23:32:00,
2013-04-28 18:40:00,52.0,-99.9,29.82,SSE,160,6.0,9.0,-999,-99.99,,,-99.99,,2013-04-28 23:40:00,
2013-04-28 19:02:00,52.0,-99.9,29.82,SSE,160,6.0,9.0,-999,-99.99,,,-99.99,,2013-04-29 00:02:00,
2013-04-28 19:11:00,52.0,-99.9,29.82,SSE,160,6.0,9.0,-999,-99.99,,,-99.99,,2013-04-29 00:11:00,
2013-04-28 19:22:00,52.0,-99.9,29.82,SSE,160,6.0,9.0,-999,-99.99,,,-99.99,,2013-04-29 00:22:00,
2013-04-28 19:32:00,52.0,-99.9,29.82,SSE,160,6.0,9.0,-999,-99.99,,,-99.99,,2013-04-29 00:32:00,
2013-04-28 19:40:00,51.0,-99.9,29.82,South,190,3.0,7.0,-999,-99.99,,,-99.99,,2013-04-29 00:40:00,
2013-04-28 20:01:00,51.0,-99.9,29.82,South,190,3.0,7.0,-999,-99.99,,,-99.99,,2013-04-29 01:01:00,
2013-04-28 20:12:00,51.0,-99.9,29.82,South,190,3.0,7.0,-999,-99.99,,,-99.99,,2013-04-29 01:12:00,
2013-04-28 20:22:00,51.0,-99.9,29.82,South,190,3.0,7.0,-999,-99.99,,,-99.99,,2013-04-29 01:22:00,
2013-04-28 20:32:00,51.0,-99.9,29.82,South,190,3.0,7.0,-999,-99.99,,,-99.99,,2013-04-29 01:32:00,
2013-04-28 20:40:00,47.0,-99.9,29.82,SE,140,8.0,9.0,-999,-99.99,,,-99.99,,2013-04-29 01:40:00,
2013-04-28 21:02:00,47.0,-99.9,29.82,SE,140,8.0,9.0,-999,-99.99,,,-99.99,,2013-04-29 02:02:00,
2013-04-28 21:11:00,47.0,-99.9,29.82,SE,140,8.0,9.0,-999,-99.99,,,-99.99,,2013-04-29 02:11:00,
2013-04-28 21:22:00,47.0,-99.9,29.82,SE,140,8.0,9.0,-999,-99.99,,,-99.99,,2013-04-29 02:22:00,
2013-04-28 21:32:00,47.0,-99.9,29.82,SE,140,8.0,9.0,-999,-99.99,,,-99.99,,2013-04-29 02:32:00,
2013-04-28 21:40:00,46.0,-99.9,29.82,SSE,150,7.0,8.0,-999,-99.99,,,-99.99,,2013-04-29 02:40:00,
2013-04-28 22:02:00,46.0,-99.9,29.82,SSE,150,7.0,8.0,-999,-99.99,,,-99.99,,2013-04-29 03:02:00,
2013-04-28 22:12:00,46.0,-99.9,29.82,SSE,150,7.0,8.0,-999,-99.99,,,-99.99,,2013-04-29 03:12:00,
2013-04-28 22:22:00,46.0,-99.9,29.82,SSE,150,7.0,8.0,-999,-99.99,,,-99.99,,2013-04-29 03:22:00,
2013-04-28 22:33:00,46.0,-99.9,29.82,SSE,150,7.0,8.0,-999,-99.99,,,-99.99,,2013-04-29 03:33:00,
2013-04-28 22:40:00,48.0,-99.9,29.82,South,170,7.0,10.0,-999,-99.99,,,-99.99,,2013-04-29 03:40:00,
2013-04-28 23:03:00,48.0,-99.9,29.82,South,170,7.0,10.0,-999,-99.99,,,-99.99,,2013-04-29 04:03:00,
2013-04-28 23:13:00,48.0,-99.9,29.82,South,170,7.0,10.0,-999,-99.99,,,-99.99,,2013-04-29 04:13:00,
2013-04-28 23:23:00,48.0,-99.9,29.82,South,170,7.0,10.0,-999,-99.99,,,-99.99,,2013-04-29 04:23:00,
2013-04-28 23:33:00,48.0,-99.9,29.82,South,170,7.0,10.0,-999,-99.99,,,-99.99,,2013-04-29 04:33:00,
2013-04-28 23:40:00,48.0,-99.9,29.82,SSE,160,5.0,8.0,-999,-99.99,,,-99.99,,2013-04-29 04:40:00,